Time;durP1;ratioP1;P1;durP2;ratioP2;P2;SDS_P1;SDS_P2;PMS_P1;PMS_P2;Temp;Humidity;BMP_temperature;BMP_pressure;BME280_temperature;BME280_humidity;BME280_pressure;Samples;Min_cycle;Max_cycle;Signal;HPM_P1;HPM_P2
2022/05/11 00:02:07;;;;;;;2.10;1.90;;;;;;;;;;5039614;28;20200;-81
2022/05/11 00:04:34;;;;;;;2.53;2.33;;;;;;;;;;5037966;28;20658;-80
2022/05/11 00:07:01;;;;;;;4.32;2.38;;;;;;;;;;5051082;28;20214;-81
2022/05/11 00:09:29;;;;;;;2.05;1.75;;;;;;;;;;5047881;28;20190;-80
2022/05/11 00:11:56;;;;;;;2.33;2.13;;;;;;;;;;5050634;28;20199;-81
2022/05/11 00:14:23;;;;;;;2.13;1.92;;;;;;;;;;5043113;28;20642;-80
2022/05/11 00:16:51;;;;;;;2.85;2.03;;;;;;;;;;5041899;28;20678;-81
2022/05/11 00:19:21;;;;;;;3.08;1.92;;;;;;;;;;5042652;28;20207;-80
2022/05/11 00:21:48;;;;;;;2.20;2.00;;;;;;;;;;5050726;28;20202;-80
2022/05/11 00:24:15;;;;;;;3.25;1.77;;;;;;;;;;5045754;28;20233;-82
2022/05/11 00:26:43;;;;;;;2.90;2.00;;;;;;;;;;5043579;28;20199;-80
2022/05/11 00:29:10;;;;;;;5.43;2.15;;;;;;;;;;5033341;28;20289;-80
2022/05/11 00:31:37;;;;;;;1.92;1.77;;;;;;;;;;5042769;28;20690;-79
2022/05/11 00:34:05;;;;;;;4.55;2.08;;;;;;;;;;5042116;28;20199;-80
2022/05/11 00:36:32;;;;;;;4.97;1.90;;;;;;;;;;5050305;28;20215;-80
2022/05/11 00:38:59;;;;;;;2.28;1.88;;;;;;;;;;5041351;28;20333;-82
2022/05/11 00:41:26;;;;;;;1.95;1.70;;;;;;;;;;5046140;28;20218;-80
2022/05/11 00:43:57;;;;;;;1.75;1.65;;;;;;;;;;5038703;28;20659;-81
2022/05/11 00:46:28;;;;;;;2.00;1.80;;;;;;;;;;5042785;28;20316;-80
2022/05/11 00:51:44;;;;;;;2.38;2.17;;;;;;;;;;5052952;28;20565;-81
2022/05/11 00:54:12;;;;;;;2.10;1.90;;;;;;;;;;5049099;28;20226;-81
2022/05/11 00:56:41;;;;;;;1.95;1.70;;;;;;;;;;5053944;28;20218;-80
2022/05/11 00:59:12;;;;;;;2.33;1.75;;;;;;;;;;5046600;28;20203;-80
2022/05/11 01:01:40;;;;;;;1.80;1.70;;;;;;;;;;5051665;28;20225;-80
2022/05/11 01:04:10;;;;;;;2.42;2.22;;;;;;;;;;5051040;28;20206;-82
2022/05/11 01:06:37;;;;;;;1.88;1.77;;;;;;;;;;5050393;28;20566;-79
2022/05/11 01:09:05;;;;;;;2.60;1.85;;;;;;;;;;5053989;28;20203;-79
2022/05/11 01:11:34;;;;;;;1.65;1.40;;;;;;;;;;5043854;28;20200;-79
2022/05/11 01:14:01;;;;;;;1.73;1.52;;;;;;;;;;5050215;28;20218;-79
2022/05/11 01:16:31;;;;;;;1.75;1.65;;;;;;;;;;5052025;28;20302;-78
2022/05/11 01:18:59;;;;;;;1.73;1.60;;;;;;;;;;5044270;28;20203;-80
2022/05/11 01:21:30;;;;;;;2.45;1.85;;;;;;;;;;5050613;28;20269;-79
2022/05/11 01:24:00;;;;;;;1.60;1.50;;;;;;;;;;5040218;28;20746;-78
2022/05/11 01:26:33;;;;;;;1.98;1.88;;;;;;;;;;5046899;28;20561;-79
2022/05/11 01:29:00;;;;;;;2.25;1.75;;;;;;;;;;5051544;28;20562;-80
2022/05/11 01:31:27;;;;;;;2.13;1.65;;;;;;;;;;5050398;28;20199;-80
2022/05/11 01:33:54;;;;;;;2.38;2.08;;;;;;;;;;5050776;28;20222;-81
2022/05/11 01:36:26;;;;;;;1.90;1.70;;;;;;;;;;5043284;28;20210;-80
2022/05/11 01:38:54;;;;;;;2.25;1.88;;;;;;;;;;5043747;28;20199;-79
2022/05/11 01:41:22;;;;;;;2.03;1.83;;;;;;;;;;5045973;28;20222;-79
2022/05/11 01:43:51;;;;;;;1.90;1.52;;;;;;;;;;5047162;28;20620;-79
2022/05/11 01:46:18;;;;;;;1.55;1.40;;;;;;;;;;5048321;28;20199;-80
2022/05/11 01:48:45;;;;;;;2.70;2.00;;;;;;;;;;5048455;28;20663;-80
2022/05/11 01:51:13;;;;;;;2.00;1.80;;;;;;;;;;5053288;28;20199;-79
2022/05/11 01:53:40;;;;;;;3.35;1.98;;;;;;;;;;5051703;28;20202;-81
2022/05/11 01:56:09;;;;;;;4.07;1.88;;;;;;;;;;5052263;28;20222;-79
2022/05/11 01:58:37;;;;;;;1.90;1.70;;;;;;;;;;5043308;28;20701;-79
2022/05/11 02:01:05;;;;;;;1.75;1.65;;;;;;;;;;5045008;28;20598;-82
2022/05/11 02:03:33;;;;;;;4.13;1.67;;;;;;;;;;5050515;28;20650;-79
2022/05/11 02:08:45;;;;;;;2.15;1.85;;;;;;;;;;5051574;28;20748;-80
2022/05/11 02:11:13;;;;;;;1.90;1.70;;;;;;;;;;5040924;28;20191;-79
2022/05/11 02:13:40;;;;;;;3.40;2.40;;;;;;;;;;5047895;28;20205;-79
2022/05/11 02:16:09;;;;;;;2.85;1.95;;;;;;;;;;5048486;28;20219;-79
2022/05/11 02:18:37;;;;;;;1.85;1.75;;;;;;;;;;5049056;28;20633;-80
2022/05/11 02:21:05;;;;;;;1.92;1.58;;;;;;;;;;5048742;28;20306;-79
2022/05/11 02:23:32;;;;;;;1.95;1.75;;;;;;;;;;5032913;28;20196;-78
2022/05/11 02:25:59;;;;;;;1.65;1.55;;;;;;;;;;5037516;28;20562;-78
2022/05/11 02:28:26;;;;;;;2.22;1.98;;;;;;;;;;5049017;28;20210;-78
2022/05/11 02:30:54;;;;;;;2.25;2.05;;;;;;;;;;5049722;28;20206;-79
2022/05/11 02:33:23;;;;;;;2.00;1.80;;;;;;;;;;5051046;28;20203;-83
2022/05/11 02:35:51;;;;;;;2.33;1.83;;;;;;;;;;5053113;28;20203;-83
2022/05/11 02:38:20;;;;;;;1.80;1.65;;;;;;;;;;5046870;28;20195;-83
2022/05/11 02:40:48;;;;;;;2.00;1.80;;;;;;;;;;5049033;28;20555;-84
2022/05/11 02:43:15;;;;;;;3.33;1.50;;;;;;;;;;5052712;28;20202;-85
2022/05/11 02:45:43;;;;;;;2.28;1.65;;;;;;;;;;5050734;28;20199;-83
2022/05/11 02:48:11;;;;;;;3.75;2.08;;;;;;;;;;5051505;28;20203;-83
2022/05/11 02:50:40;;;;;;;1.50;1.40;;;;;;;;;;5052164;28;20210;-83
2022/05/11 02:53:09;;;;;;;6.00;3.13;;;;;;;;;;5051335;28;20195;-83
2022/05/11 02:55:37;;;;;;;4.00;1.67;;;;;;;;;;5051089;28;20535;-83
2022/05/11 02:58:04;;;;;;;1.77;1.50;;;;;;;;;;5037066;28;20219;-83
2022/05/11 03:00:31;;;;;;;1.50;1.40;;;;;;;;;;5042481;28;20579;-83
2022/05/11 03:02:59;;;;;;;4.38;1.75;;;;;;;;;;5047891;28;20287;-83
2022/05/11 03:05:26;;;;;;;2.80;1.50;;;;;;;;;;5047132;28;20662;-83
2022/05/11 03:07:54;;;;;;;2.20;2.00;;;;;;;;;;5050143;28;20202;-82
2022/05/11 03:10:22;;;;;;;2.50;2.00;;;;;;;;;;5045606;28;20203;-83
2022/05/11 03:12:49;;;;;;;2.75;2.20;;;;;;;;;;5047066;28;20556;-83
2022/05/11 03:15:16;;;;;;;2.00;1.80;;;;;;;;;;5042327;28;20701;-82
2022/05/11 03:17:44;;;;;;;2.35;1.98;;;;;;;;;;5042503;28;20225;-82
2022/05/11 03:20:11;;;;;;;2.05;1.73;;;;;;;;;;5051602;28;20673;-82
2022/05/11 03:22:39;;;;;;;2.65;2.15;;;;;;;;;;5049355;28;20556;-84
2022/05/11 03:25:08;;;;;;;2.45;2.03;;;;;;;;;;5039149;28;20238;-83
2022/05/11 03:27:35;;;;;;;2.25;1.85;;;;;;;;;;5050228;28;20195;-84
2022/05/11 03:30:02;;;;;;;2.35;2.15;;;;;;;;;;5034730;28;20559;-84
2022/05/11 03:35:14;;;;;;;4.78;2.78;;;;;;;;;;5033814;28;20205;-83
2022/05/11 03:37:42;;;;;;;2.38;2.17;;;;;;;;;;5041613;28;20224;-84
2022/05/11 03:40:12;;;;;;;2.40;2.20;;;;;;;;;;5052970;28;20261;-84
2022/05/11 03:42:39;;;;;;;2.08;1.98;;;;;;;;;;5041014;28;20222;-83
2022/05/11 03:45:08;;;;;;;1.60;1.40;;;;;;;;;;5045720;28;20199;-82
2022/05/11 03:47:35;;;;;;;3.58;2.28;;;;;;;;;;5047724;28;20199;-83
2022/05/11 03:50:02;;;;;;;3.28;2.10;;;;;;;;;;5050690;28;20196;-82
2022/05/11 03:52:29;;;;;;;1.75;1.65;;;;;;;;;;5051233;28;20210;-83
2022/05/11 03:54:56;;;;;;;2.67;1.90;;;;;;;;;;5041947;28;20215;-83
2022/05/11 03:57:24;;;;;;;3.03;1.70;;;;;;;;;;5048438;28;20704;-84
2022/05/11 03:59:52;;;;;;;3.10;1.98;;;;;;;;;;5037705;28;20706;-86
2022/05/11 04:02:19;;;;;;;2.30;1.95;;;;;;;;;;5047843;28;20199;-85
2022/05/11 04:04:46;;;;;;;2.33;1.50;;;;;;;;;;5048022;28;20195;-86
2022/05/11 04:07:13;;;;;;;2.78;1.80;;;;;;;;;;5045171;28;20195;-85
2022/05/11 04:09:40;;;;;;;1.95;1.70;;;;;;;;;;5048808;28;20226;-85
2022/05/11 04:12:08;;;;;;;2.50;1.92;;;;;;;;;;5046811;28;20214;-84
2022/05/11 04:14:36;;;;;;;2.40;2.20;;;;;;;;;;5047750;28;20191;-86
2022/05/11 04:17:03;;;;;;;1.50;1.40;;;;;;;;;;5048551;28;20218;-85
2022/05/11 04:19:30;;;;;;;2.13;1.58;;;;;;;;;;5047415;28;20202;-86
2022/05/11 04:21:57;;;;;;;2.08;1.75;;;;;;;;;;5045234;28;20697;-85
2022/05/11 04:24:24;;;;;;;2.03;1.85;;;;;;;;;;5048091;28;20761;-84
2022/05/11 04:26:52;;;;;;;1.92;1.73;;;;;;;;;;5036899;28;20206;-86
2022/05/11 04:29:19;;;;;;;2.00;1.50;;;;;;;;;;5049864;28;20187;-84
2022/05/11 04:31:48;;;;;;;2.08;1.63;;;;;;;;;;5047636;28;20206;-84
2022/05/11 04:34:15;;;;;;;2.85;1.95;;;;;;;;;;5050919;28;20199;-83
2022/05/11 04:36:42;;;;;;;2.97;2.13;;;;;;;;;;5045147;28;20221;-85
2022/05/11 04:39:09;;;;;;;1.70;1.60;;;;;;;;;;5043761;28;20199;-84
2022/05/11 04:41:36;;;;;;;1.70;1.52;;;;;;;;;;5047126;28;20238;-83
2022/05/11 04:44:03;;;;;;;2.00;1.90;;;;;;;;;;5047367;28;20198;-84
2022/05/11 04:46:33;;;;;;;2.00;1.50;;;;;;;;;;5043608;28;20207;-82
2022/05/11 04:51:42;;;;;;;2.50;1.95;;;;;;;;;;5030894;28;20203;-82
2022/05/11 04:54:09;;;;;;;1.80;1.50;;;;;;;;;;5045838;28;20210;-82
2022/05/11 04:56:38;;;;;;;2.60;1.65;;;;;;;;;;5042567;28;20200;-82
2022/05/11 04:59:05;;;;;;;1.70;1.52;;;;;;;;;;5039685;28;20203;-83
2022/05/11 05:01:32;;;;;;;2.08;1.70;;;;;;;;;;5042564;28;20213;-83
2022/05/11 05:03:59;;;;;;;1.88;1.40;;;;;;;;;;5051556;28;20646;-88
2022/05/11 05:06:28;;;;;;;1.95;1.48;;;;;;;;;;5051046;28;20206;-88
2022/05/11 05:08:55;;;;;;;2.05;1.60;;;;;;;;;;5048346;28;20531;-86
2022/05/11 05:11:23;;;;;;;1.73;1.63;;;;;;;;;;5043728;28;20200;-86
2022/05/11 05:13:50;;;;;;;1.83;1.73;;;;;;;;;;5047907;28;20532;-85
2022/05/11 05:16:17;;;;;;;3.90;2.40;;;;;;;;;;5044970;28;20670;-86
2022/05/11 05:18:44;;;;;;;2.67;1.95;;;;;;;;;;5048562;28;20245;-87
2022/05/11 05:21:11;;;;;;;1.65;1.55;;;;;;;;;;5051305;28;20213;-86
2022/05/11 05:23:40;;;;;;;3.95;2.30;;;;;;;;;;5044845;28;20200;-86
2022/05/11 05:26:07;;;;;;;2.03;1.73;;;;;;;;;;5043390;28;20211;-87
2022/05/11 05:31:21;;;;;;;2.45;1.70;;;;;;;;;;5037471;28;20193;-87
2022/05/11 05:33:49;;;;;;;2.13;1.60;;;;;;;;;;5043255;28;20200;-87
2022/05/11 05:36:16;;;;;;;1.70;1.60;;;;;;;;;;5048636;28;20231;-88
2022/05/11 05:38:44;;;;;;;2.47;1.50;;;;;;;;;;5049822;28;20227;-90
2022/05/11 05:41:12;;;;;;;1.90;1.80;;;;;;;;;;5053435;28;20732;-90
2022/05/11 05:43:39;;;;;;;1.95;1.55;;;;;;;;;;5046313;28;20222;-89
2022/05/11 05:46:07;;;;;;;1.95;1.70;;;;;;;;;;5046688;28;20210;-89
2022/05/11 05:48:34;;;;;;;2.00;1.80;;;;;;;;;;5053173;28;20555;-88
2022/05/11 05:51:05;;;;;;;1.70;1.60;;;;;;;;;;5054140;28;20206;-90
2022/05/11 05:53:32;;;;;;;3.65;2.00;;;;;;;;;;5047550;28;20204;-91
2022/05/11 05:56:01;;;;;;;2.58;2.00;;;;;;;;;;5053024;28;20641;-89
2022/05/11 05:58:28;;;;;;;2.13;1.92;;;;;;;;;;5046743;28;20215;-88
2022/05/11 06:00:55;;;;;;;2.33;1.85;;;;;;;;;;5055498;28;20207;-88
2022/05/11 06:03:23;;;;;;;2.00;1.65;;;;;;;;;;5051693;28;20195;-84
2022/05/11 06:05:50;;;;;;;2.00;1.65;;;;;;;;;;5039978;28;20207;-88
2022/05/11 06:08:17;;;;;;;4.82;1.40;;;;;;;;;;5042336;28;20196;-87
2022/05/11 06:10:45;;;;;;;1.83;1.55;;;;;;;;;;5054937;28;20203;-88
2022/05/11 06:13:15;;;;;;;1.80;1.50;;;;;;;;;;5051257;28;20206;-88
2022/05/11 06:15:42;;;;;;;2.45;1.60;;;;;;;;;;5047177;28;20670;-86
2022/05/11 06:18:10;;;;;;;1.65;1.55;;;;;;;;;;5044035;28;20245;-85
2022/05/11 06:20:37;;;;;;;2.50;1.85;;;;;;;;;;5053851;28;20206;-86
2022/05/11 06:23:04;;;;;;;1.63;1.40;;;;;;;;;;5055577;28;20282;-85
2022/05/11 06:25:32;;;;;;;1.88;1.70;;;;;;;;;;5056566;28;20237;-86
2022/05/11 06:27:59;;;;;;;2.05;1.60;;;;;;;;;;5045295;28;20602;-86
2022/05/11 06:30:28;;;;;;;1.83;1.73;;;;;;;;;;5050564;28;20195;-85
2022/05/11 06:32:55;;;;;;;2.50;1.92;;;;;;;;;;5054140;28;20203;-84
2022/05/11 06:35:23;;;;;;;1.92;1.83;;;;;;;;;;5045360;28;20257;-87
2022/05/11 06:37:51;;;;;;;2.05;1.73;;;;;;;;;;5053413;28;20218;-86
2022/05/11 06:40:19;;;;;;;1.90;1.70;;;;;;;;;;5050479;28;20664;-86
2022/05/11 06:42:47;;;;;;;2.38;1.40;;;;;;;;;;5049349;28;20674;-87
2022/05/11 06:45:14;;;;;;;2.30;1.50;;;;;;;;;;5035708;28;20697;-86
2022/05/11 06:47:42;;;;;;;1.55;1.45;;;;;;;;;;5039568;28;20207;-85
2022/05/11 06:50:11;;;;;;;2.93;1.67;;;;;;;;;;5054845;28;20195;-86
2022/05/11 06:52:39;;;;;;;4.47;1.70;;;;;;;;;;5052157;28;20513;-88
2022/05/11 07:00:33;;;;;;;2.23;1.80;;;;;;;;;;5044771;28;20444;-87
2022/05/11 07:03:01;;;;;;;3.70;1.90;;;;;;;;;;5052479;28;20789;-88
2022/05/11 07:05:28;;;;;;;3.23;1.67;;;;;;;;;;5037756;28;20454;-87
2022/05/11 07:07:55;;;;;;;1.60;1.50;;;;;;;;;;5046501;28;20919;-87
2022/05/11 07:10:23;;;;;;;2.60;1.60;;;;;;;;;;5050526;28;20463;-85
2022/05/11 07:12:50;;;;;;;5.40;1.67;;;;;;;;;;5054336;28;20429;-85
2022/05/11 07:15:18;;;;;;;1.70;1.60;;;;;;;;;;5047381;28;20466;-87
2022/05/11 07:17:48;;;;;;;2.47;1.50;;;;;;;;;;5052416;28;20580;-88
2022/05/11 07:20:18;;;;;;;2.80;2.30;;;;;;;;;;5047045;28;20817;-86
2022/05/11 07:22:45;;;;;;;1.70;1.43;;;;;;;;;;5046655;28;20445;-84
2022/05/11 07:25:14;;;;;;;3.50;1.90;;;;;;;;;;5048739;28;20454;-89
2022/05/11 07:27:42;;;;;;;2.10;1.90;;;;;;;;;;5053752;28;20916;-82
2022/05/11 07:30:11;;;;;;;2.80;1.83;;;;;;;;;;5042044;28;20553;-87
2022/05/11 07:32:38;;;;;;;2.27;2.00;;;;;;;;;;5053263;28;20492;-88
2022/05/11 07:35:06;;;;;;;2.43;1.90;;;;;;;;;;5056330;28;20809;-88
2022/05/11 07:37:34;;;;;;;8.80;2.33;;;;;;;;;;5045485;28;20476;-86
2022/05/11 07:40:01;;;;;;;3.43;2.13;;;;;;;;;;5051604;28;20460;-87
2022/05/11 07:42:30;;;;;;;2.13;2.03;;;;;;;;;;5041986;28;20517;-84
2022/05/11 07:44:57;;;;;;;1.97;1.77;;;;;;;;;;5048480;28;20499;-82
2022/05/11 07:47:24;;;;;;;1.80;1.67;;;;;;;;;;5040696;28;20465;-84
2022/05/11 07:49:51;;;;;;;3.10;2.07;;;;;;;;;;5044682;28;20452;-85
2022/05/11 07:52:18;;;;;;;2.00;1.80;;;;;;;;;;5043035;28;21007;-84
2022/05/11 07:54:48;;;;;;;2.50;2.30;;;;;;;;;;5042288;28;20446;-85
2022/05/11 08:00:00;;;;;;;2.00;1.70;;;;;;;;;;5048439;28;20792;-86
2022/05/11 08:02:28;;;;;;;2.17;1.97;;;;;;;;;;5041685;28;20460;-87
2022/05/11 08:04:57;;;;;;;3.17;2.37;;;;;;;;;;5042183;28;20450;-84
2022/05/11 08:07:26;;;;;;;2.70;2.47;;;;;;;;;;5037871;28;20471;-84
2022/05/11 08:09:54;;;;;;;6.17;2.43;;;;;;;;;;5039997;28;20573;-86
2022/05/11 08:12:21;;;;;;;3.47;2.87;;;;;;;;;;5050641;28;20956;-87
2022/05/11 08:14:49;;;;;;;4.20;2.47;;;;;;;;;;5047015;28;20462;-86
2022/05/11 08:17:16;;;;;;;5.07;2.23;;;;;;;;;;5044673;28;20563;-86
2022/05/11 08:19:44;;;;;;;3.47;2.30;;;;;;;;;;5052402;28;20515;-83
2022/05/11 08:22:11;;;;;;;4.70;2.80;;;;;;;;;;5041739;28;20837;-83
2022/05/11 08:24:38;;;;;;;5.80;2.90;;;;;;;;;;5038517;28;20520;-82
2022/05/11 08:27:09;;;;;;;3.60;2.57;;;;;;;;;;5036733;28;20500;-83
2022/05/11 08:35:06;;;;;;;3.83;2.53;;;;;;;;;;5039128;28;20460;-83
2022/05/11 08:37:34;;;;;;;3.90;2.43;;;;;;;;;;5041230;28;20468;-84
2022/05/11 08:40:01;;;;;;;2.30;2.10;;;;;;;;;;5039917;28;20489;-84
2022/05/11 08:42:32;;;;;;;2.70;2.50;;;;;;;;;;5046023;28;20471;-85
2022/05/11 08:45:01;;;;;;;2.20;2.00;;;;;;;;;;5042962;28;20544;-85
2022/05/11 08:47:32;;;;;;;4.53;2.10;;;;;;;;;;5043140;28;21214;-86
2022/05/11 08:50:06;;;;;;;2.03;1.87;;;;;;;;;;5044699;28;20457;-82
2022/05/11 08:52:36;;;;;;;1.77;1.67;;;;;;;;;;5037036;28;21006;-83
2022/05/11 08:55:08;;;;;;;2.10;1.70;;;;;;;;;;5033903;28;20450;-83
2022/05/11 08:57:37;;;;;;;2.40;2.20;;;;;;;;;;5048363;28;20991;-85
2022/05/11 09:00:07;;;;;;;2.87;2.03;;;;;;;;;;5038226;28;20504;-83
2022/05/11 09:02:38;;;;;;;2.10;1.90;;;;;;;;;;5047471;28;20809;-84
2022/05/11 09:05:05;;;;;;;2.00;1.70;;;;;;;;;;5033150;28;20462;-84
2022/05/11 09:07:35;;;;;;;3.03;1.93;;;;;;;;;;5043504;28;20990;-84
2022/05/11 09:10:02;;;;;;;2.73;2.17;;;;;;;;;;5043331;28;20451;-85
2022/05/11 09:12:30;;;;;;;2.10;1.90;;;;;;;;;;5043116;28;20458;-84
2022/05/11 09:15:00;;;;;;;2.40;1.63;;;;;;;;;;5040125;28;20523;-85
2022/05/11 09:17:28;;;;;;;3.43;2.03;;;;;;;;;;5050236;28;20496;-85
2022/05/11 09:20:00;;;;;;;3.70;2.30;;;;;;;;;;5053669;28;20968;-85
2022/05/11 09:22:27;;;;;;;2.37;2.03;;;;;;;;;;5049223;28;20957;-84
2022/05/11 09:24:56;;;;;;;2.07;1.63;;;;;;;;;;5058814;28;20456;-85
2022/05/11 09:27:24;;;;;;;4.93;2.00;;;;;;;;;;5046618;28;20457;-86
2022/05/11 09:29:56;;;;;;;2.00;1.80;;;;;;;;;;5047351;28;21073;-85
2022/05/11 09:32:31;;;;;;;2.47;2.27;;;;;;;;;;5050129;28;20511;-86
2022/05/11 09:34:58;;;;;;;3.23;2.63;;;;;;;;;;5051236;28;20459;-85
2022/05/11 09:37:28;;;;;;;1.90;1.60;;;;;;;;;;5048911;28;20952;-85
2022/05/11 09:39:56;;;;;;;3.40;1.57;;;;;;;;;;5052021;28;20477;-86
2022/05/11 09:42:29;;;;;;;2.70;2.50;;;;;;;;;;5052123;28;20488;-84
2022/05/11 09:44:56;;;;;;;1.87;1.60;;;;;;;;;;5052492;28;20463;-82
2022/05/11 09:47:25;;;;;;;4.33;2.23;;;;;;;;;;5040320;28;20458;-86
2022/05/11 09:49:53;;;;;;;4.23;2.03;;;;;;;;;;5037621;28;20446;-87
2022/05/11 09:52:31;;;;;;;3.37;2.20;;;;;;;;;;5039450;28;20490;-82
2022/05/11 09:54:59;;;;;;;4.00;2.10;;;;;;;;;;5054918;28;20737;-86
2022/05/11 09:57:28;;;;;;;2.40;1.70;;;;;;;;;;5048271;28;20473;-85
2022/05/11 09:59:57;;;;;;;2.67;1.90;;;;;;;;;;5050772;28;20980;-85
2022/05/11 10:02:27;;;;;;;3.40;1.73;;;;;;;;;;5047298;28;20507;-87
2022/05/11 10:05:00;;;;;;;1.80;1.57;;;;;;;;;;5053122;28;20990;-88
2022/05/11 10:07:28;;;;;;;4.03;1.67;;;;;;;;;;5045057;28;20978;-86
2022/05/11 10:09:59;;;;;;;2.00;1.47;;;;;;;;;;5045513;28;20472;-79
2022/05/11 10:12:28;;;;;;;2.70;2.00;;;;;;;;;;5044970;28;20450;-83
2022/05/11 10:23:21;;;;;;;4.23;2.00;;;;;;;;;;5050021;28;20494;-84
2022/05/11 10:25:51;;;;;;;2.20;1.90;;;;;;;;;;5044363;28;20507;-84
2022/05/11 10:28:23;;;;;;;2.97;2.70;;;;;;;;;;5048462;28;20485;-85
2022/05/11 10:30:56;;;;;;;2.60;1.67;;;;;;;;;;5046351;28;20507;-84
2022/05/11 10:33:30;;;;;;;1.73;1.50;;;;;;;;;;5049653;28;20460;-85
2022/05/11 10:36:02;;;;;;;1.70;1.50;;;;;;;;;;5057515;28;20482;-83
2022/05/11 10:38:42;;;;;;;10.53;2.30;;;;;;;;;;5050504;28;20817;-84
2022/05/11 10:41:13;;;;;;;1.63;1.53;;;;;;;;;;5046120;28;20476;-86
2022/05/11 10:43:47;;;;;;;2.97;1.83;;;;;;;;;;5041728;28;20458;-83
2022/05/11 10:46:18;;;;;;;1.83;1.63;;;;;;;;;;5050436;28;20461;-84
2022/05/11 10:48:57;;;;;;;5.60;2.00;;;;;;;;;;5048139;28;20507;-88
2022/05/11 10:51:38;;;;;;;2.03;1.70;;;;;;;;;;5041256;28;20461;-83
2022/05/11 10:54:09;;;;;;;2.23;1.80;;;;;;;;;;5042603;28;20445;-84
2022/05/11 10:56:46;;;;;;;2.67;1.93;;;;;;;;;;5044893;28;20460;-84
2022/05/11 10:59:27;;;;;;;2.00;1.80;;;;;;;;;;5033976;28;20486;-81
2022/05/11 11:02:02;;;;;;;1.80;1.70;;;;;;;;;;5037576;28;20576;-84
2022/05/11 11:04:42;;;;;;;3.20;1.93;;;;;;;;;;5051073;28;20453;-86
2022/05/11 11:07:26;;;;;;;2.27;2.07;;;;;;;;;;5047389;28;20469;-83
2022/05/11 11:10:03;;;;;;;2.70;2.43;;;;;;;;;;5041842;28;20466;-81
2022/05/11 11:12:51;;;;;;;3.33;1.87;;;;;;;;;;5044326;28;20503;-83
2022/05/11 11:15:20;;;;;;;5.70;2.33;;;;;;;;;;5018203;28;20458;-80
2022/05/11 11:17:47;;;;;;;3.20;1.73;;;;;;;;;;5048723;28;20967;-79
2022/05/11 11:20:16;;;;;;;2.77;1.90;;;;;;;;;;5046199;28;20473;-82
2022/05/11 11:23:01;;;;;;;4.77;1.83;;;;;;;;;;5040620;28;20469;-83
2022/05/11 11:25:43;;;;;;;6.53;2.27;;;;;;;;;;5043281;28;20458;-80
2022/05/11 11:28:11;;;;;;;5.17;1.93;;;;;;;;;;5039922;28;20454;-82
2022/05/11 11:30:39;;;;;;;1.63;1.43;;;;;;;;;;5033039;28;20880;-80
2022/05/11 11:33:24;;;;;;;2.40;2.10;;;;;;;;;;5042721;28;20464;-82
2022/05/11 11:35:55;;;;;;;2.80;1.57;;;;;;;;;;5046190;28;20969;-83
2022/05/11 11:38:28;;;;;;;2.90;2.10;;;;;;;;;;5044907;28;20453;-81
2022/05/11 11:41:13;;;;;;;2.10;1.77;;;;;;;;;;5047119;28;20540;-80
2022/05/11 11:43:52;;;;;;;3.10;2.20;;;;;;;;;;5049505;28;20461;-80
2022/05/11 11:46:29;;;;;;;4.47;2.60;;;;;;;;;;5043890;28;20464;-79
2022/05/11 11:49:02;;;;;;;1.83;1.70;;;;;;;;;;5049357;28;20940;-83
2022/05/11 11:51:34;;;;;;;2.03;1.93;;;;;;;;;;5042064;28;20561;-80
2022/05/11 11:54:01;;;;;;;3.20;2.60;;;;;;;;;;5038190;28;20503;-81
2022/05/11 11:56:47;;;;;;;2.70;1.93;;;;;;;;;;5039176;28;20457;-81
2022/05/11 11:59:33;;;;;;;2.20;2.00;;;;;;;;;;5037018;28;20489;-81
2022/05/11 12:02:05;;;;;;;3.37;2.23;;;;;;;;;;5042439;28;20548;-82
2022/05/11 12:04:34;;;;;;;3.60;2.30;;;;;;;;;;5042390;28;20960;-84
2022/05/11 12:15:20;;;;;;;4.63;3.43;;;;;;;;;;5041664;28;20943;-81
2022/05/11 12:17:47;;;;;;;3.33;2.00;;;;;;;;;;5034062;28;20473;-83
2022/05/11 12:20:17;;;;;;;3.90;2.00;;;;;;;;;;5035532;28;20478;-81
2022/05/11 12:22:46;;;;;;;2.50;2.30;;;;;;;;;;5040884;28;20805;-82
2022/05/11 12:25:19;;;;;;;4.17;2.67;;;;;;;;;;5037625;28;20466;-84
2022/05/11 12:27:48;;;;;;;2.33;2.10;;;;;;;;;;5042351;28;20546;-85
2022/05/11 12:30:21;;;;;;;3.47;1.67;;;;;;;;;;5035877;28;20453;-84
2022/05/11 12:32:52;;;;;;;2.33;2.00;;;;;;;;;;5046120;28;20461;-81
2022/05/11 12:35:20;;;;;;;2.90;2.20;;;;;;;;;;5045005;28;20465;-83
2022/05/11 12:37:54;;;;;;;2.77;2.33;;;;;;;;;;5043611;28;20461;-82
2022/05/11 12:40:21;;;;;;;3.10;2.13;;;;;;;;;;5041367;28;20513;-83
2022/05/11 12:42:51;;;;;;;2.00;1.80;;;;;;;;;;5047156;28;20469;-81
2022/05/11 12:45:21;;;;;;;3.43;2.10;;;;;;;;;;5048781;28;20464;-81
2022/05/11 12:47:50;;;;;;;4.17;1.90;;;;;;;;;;5051878;28;20782;-81
2022/05/11 12:50:18;;;;;;;1.90;1.70;;;;;;;;;;5045981;28;20959;-83
2022/05/11 12:52:45;;;;;;;4.23;2.00;;;;;;;;;;5051560;28;20460;-81
2022/05/11 12:55:13;;;;;;;5.73;2.37;;;;;;;;;;5046668;28;20504;-81
2022/05/11 12:57:42;;;;;;;1.93;1.80;;;;;;;;;;5049985;28;20469;-81
2022/05/11 13:00:14;;;;;;;3.33;1.90;;;;;;;;;;5050362;28;20913;-80
2022/05/11 13:02:42;;;;;;;3.30;2.20;;;;;;;;;;5045869;28;20469;-82
2022/05/11 13:05:11;;;;;;;2.57;2.00;;;;;;;;;;5052427;28;20973;-81
2022/05/11 13:07:43;;;;;;;3.40;2.83;;;;;;;;;;5048673;28;20530;-82
2022/05/11 13:10:14;;;;;;;2.37;1.97;;;;;;;;;;5050270;28;20460;-80
2022/05/11 13:12:42;;;;;;;2.40;2.20;;;;;;;;;;5051884;28;20464;-82
2022/05/11 13:15:09;;;;;;;3.57;1.93;;;;;;;;;;5050888;28;20464;-82
2022/05/11 13:17:43;;;;;;;3.00;2.37;;;;;;;;;;5049602;28;20881;-79
2022/05/11 13:20:22;;;;;;;1.70;1.47;;;;;;;;;;5047139;28;20475;-80
2022/05/11 13:22:49;;;;;;;3.50;2.00;;;;;;;;;;5050491;28;20458;-82
2022/05/11 13:25:37;;;;;;;2.00;1.90;;;;;;;;;;5041850;28;20461;-82
2022/05/11 13:28:09;;;;;;;4.90;2.53;;;;;;;;;;5038681;28;20468;-83
2022/05/11 13:30:40;;;;;;;4.17;2.40;;;;;;;;;;5046821;28;20461;-82
2022/05/11 13:33:26;;;;;;;4.33;2.00;;;;;;;;;;5034116;28;20454;-82
2022/05/11 13:36:05;;;;;;;3.07;1.73;;;;;;;;;;5045096;28;20956;-82
2022/05/11 13:38:32;;;;;;;2.10;1.93;;;;;;;;;;5049383;28;20456;-81
2022/05/11 13:41:00;;;;;;;2.13;1.70;;;;;;;;;;5041108;28;20480;-83
2022/05/11 13:43:29;;;;;;;4.43;1.50;;;;;;;;;;5045628;28;20964;-84
2022/05/11 13:45:57;;;;;;;8.10;2.03;;;;;;;;;;5045727;28;20550;-82
2022/05/11 13:48:28;;;;;;;2.90;1.80;;;;;;;;;;5051502;28;20465;-82
2022/05/11 13:51:06;;;;;;;1.63;1.53;;;;;;;;;;5048191;28;20808;-85
2022/05/11 13:53:34;;;;;;;4.60;2.10;;;;;;;;;;5037899;28;20473;-83
2022/05/11 13:56:03;;;;;;;2.90;1.80;;;;;;;;;;5041258;28;20454;-84
2022/05/11 13:58:35;;;;;;;1.93;1.80;;;;;;;;;;5047685;28;20473;-84
2022/05/11 14:01:03;;;;;;;3.10;2.10;;;;;;;;;;5041386;28;20481;-82
2022/05/11 14:03:33;;;;;;;3.70;2.00;;;;;;;;;;5053043;28;20706;-81
2022/05/11 14:06:01;;;;;;;3.20;2.17;;;;;;;;;;5039107;28;20477;-81
2022/05/11 14:08:28;;;;;;;2.67;2.33;;;;;;;;;;5045807;28;20794;-85
2022/05/11 14:10:55;;;;;;;3.83;2.37;;;;;;;;;;5050218;28;20979;-83
2022/05/11 14:13:22;;;;;;;4.10;1.87;;;;;;;;;;5048876;28;20559;-81
2022/05/11 14:15:50;;;;;;;1.87;1.67;;;;;;;;;;5043817;28;20461;-83
2022/05/11 14:18:20;;;;;;;4.13;2.20;;;;;;;;;;5049274;28;20956;-82
2022/05/11 14:20:48;;;;;;;2.03;1.83;;;;;;;;;;5043828;28;20486;-84
2022/05/11 14:23:16;;;;;;;2.43;1.70;;;;;;;;;;5042121;28;20464;-82
2022/05/11 14:25:43;;;;;;;2.00;1.80;;;;;;;;;;5041441;28;20462;-82
2022/05/11 14:28:10;;;;;;;1.93;1.60;;;;;;;;;;5045224;28;20493;-82
2022/05/11 14:30:38;;;;;;;2.50;2.30;;;;;;;;;;5039281;28;20936;-84
2022/05/11 14:33:06;;;;;;;3.03;2.43;;;;;;;;;;5048669;28;20485;-85
2022/05/11 14:35:33;;;;;;;4.00;1.80;;;;;;;;;;5045622;28;20465;-85
2022/05/11 14:38:01;;;;;;;6.07;2.23;;;;;;;;;;5041963;28;21054;-85
2022/05/11 14:40:30;;;;;;;2.97;1.93;;;;;;;;;;5043250;28;20476;-84
2022/05/11 14:42:57;;;;;;;2.20;2.00;;;;;;;;;;5048085;28;20485;-83
2022/05/11 14:45:24;;;;;;;3.00;2.70;;;;;;;;;;5049666;28;20967;-86
2022/05/11 14:47:56;;;;;;;2.00;1.80;;;;;;;;;;5048272;28;20472;-85
2022/05/11 14:50:23;;;;;;;2.30;2.10;;;;;;;;;;5039870;28;21087;-86
2022/05/11 14:52:51;;;;;;;2.10;1.90;;;;;;;;;;5045962;28;21154;-85
2022/05/11 14:55:21;;;;;;;3.33;2.13;;;;;;;;;;5046991;28;20473;-82
2022/05/11 15:03:32;;;;;;;2.33;2.13;;;;;;;;;;4984269;28;20499;-83
2022/05/11 15:05:59;;;;;;;5.10;2.17;;;;;;;;;;5014359;28;20442;-84
2022/05/11 15:08:26;;;;;;;3.63;2.27;;;;;;;;;;5034367;28;20476;-83
2022/05/11 15:13:36;;;;;;;2.30;2.10;;;;;;;;;;5042149;28;20483;-81
2022/05/11 15:16:03;;;;;;;3.43;2.30;;;;;;;;;;5042099;28;20492;-84
2022/05/11 15:18:30;;;;;;;2.37;1.73;;;;;;;;;;5038079;28;20539;-83
2022/05/11 15:20:59;;;;;;;2.67;2.17;;;;;;;;;;5048999;28;20709;-83
2022/05/11 15:23:26;;;;;;;2.80;2.50;;;;;;;;;;5039974;28;20474;-83
2022/05/11 15:25:54;;;;;;;4.90;2.30;;;;;;;;;;5037706;28;20469;-82
2022/05/11 15:28:21;;;;;;;2.60;1.67;;;;;;;;;;5039408;28;20473;-85
2022/05/11 15:30:49;;;;;;;3.13;2.47;;;;;;;;;;5040461;28;20461;-85
2022/05/11 15:33:17;;;;;;;3.40;1.73;;;;;;;;;;5050518;28;20948;-86
2022/05/11 15:35:45;;;;;;;6.93;1.73;;;;;;;;;;5050962;28;20928;-84
2022/05/11 15:38:13;;;;;;;4.20;2.40;;;;;;;;;;5043765;28;20453;-85
2022/05/11 15:40:41;;;;;;;2.27;1.83;;;;;;;;;;5050096;28;20553;-83
2022/05/11 15:43:10;;;;;;;2.60;2.07;;;;;;;;;;5041071;28;20490;-85
2022/05/11 15:45:37;;;;;;;4.80;2.30;;;;;;;;;;5049556;28;20468;-84
2022/05/11 15:48:05;;;;;;;2.87;2.20;;;;;;;;;;5050152;28;20945;-84